createdAt,value
2022-11-14T00:04:49.143Z,5.17
2022-11-14T00:10:10.461Z,5.17
2022-11-14T00:15:31.508Z,5.37
2022-11-14T00:20:53.602Z,5.17
2022-11-14T00:26:14.683Z,5.10
2022-11-14T00:31:35.761Z,5.30
2022-11-14T00:36:56.865Z,5.50
2022-11-14T00:42:18.041Z,5.20
2022-11-14T00:47:41.950Z,5.10
2022-11-14T00:53:03.168Z,5.27
2022-11-14T00:58:24.169Z,5.03
2022-11-14T01:03:51.819Z,5.77
2022-11-14T01:09:12.754Z,6.40
2022-11-14T01:14:33.704Z,5.33
2022-11-14T01:19:55.311Z,6.53
2022-11-14T01:25:15.954Z,6.40
2022-11-14T01:30:40.277Z,5.57
2022-11-14T01:36:04.466Z,5.47
2022-11-14T01:41:25.611Z,5.47
2022-11-14T01:46:53.492Z,4.67
2022-11-14T01:52:26.304Z,5.10
2022-11-14T01:57:52.683Z,5.40
2022-11-14T02:03:15.441Z,5.33
2022-11-14T02:08:37.314Z,5.37
2022-11-14T02:13:59.469Z,5.33
2022-11-14T02:19:20.689Z,4.73
2022-11-14T02:24:43.153Z,5.20
2022-11-14T02:30:14.395Z,5.60
2022-11-14T02:35:35.391Z,6.10
2022-11-14T02:40:56.110Z,6.03
2022-11-14T02:46:17.192Z,6.80
2022-11-14T02:51:38.404Z,6.00
2022-11-14T02:56:59.574Z,5.77
2022-11-14T03:02:20.834Z,5.57
2022-11-14T03:07:41.669Z,4.90
2022-11-14T03:13:03.138Z,4.57
2022-11-14T03:18:23.990Z,5.03
2022-11-14T03:23:46.563Z,5.57
2022-11-14T03:29:08.043Z,5.07
2022-11-14T03:34:29.404Z,4.67
2022-11-14T03:39:50.314Z,4.83
2022-11-14T03:45:12.505Z,5.13
2022-11-14T03:50:33.825Z,4.80
2022-11-14T03:55:54.924Z,5.00
2022-11-14T04:01:16.099Z,4.60
2022-11-14T04:06:37.240Z,4.43
2022-11-14T04:11:58.128Z,4.23
2022-11-14T04:17:19.474Z,4.10
2022-11-14T04:22:41.363Z,4.10
2022-11-14T04:28:05.570Z,4.23
2022-11-14T04:33:27.200Z,3.77
2022-11-14T04:38:48.038Z,4.47
2022-11-14T04:44:09.024Z,4.70
2022-11-14T04:49:30.122Z,3.93
2022-11-14T04:54:54.490Z,4.43
2022-11-14T05:00:16.076Z,3.87
2022-11-14T05:05:41.601Z,3.73
2022-11-14T05:11:06.750Z,3.93
2022-11-14T05:16:30.609Z,4.03
2022-11-14T05:21:54.834Z,3.70
2022-11-14T05:27:16.272Z,3.73
2022-11-14T05:32:37.586Z,3.70
2022-11-14T05:38:02.554Z,4.00
2022-11-14T05:43:23.519Z,3.63
2022-11-14T05:48:44.796Z,4.10
2022-11-14T05:54:09.074Z,4.30
2022-11-14T05:59:30.189Z,3.70
2022-11-14T06:05:01.413Z,3.93
2022-11-14T06:10:22.843Z,4.00
2022-11-14T06:15:46.531Z,4.00
2022-11-14T06:21:13.470Z,3.20
2022-11-14T06:26:35.906Z,3.90
2022-11-14T06:31:56.877Z,3.80
2022-11-14T06:37:18.089Z,3.37
2022-11-14T06:42:39.216Z,3.40
2022-11-14T06:48:00.720Z,3.10
2022-11-14T06:53:21.995Z,3.23
2022-11-14T06:58:47.508Z,3.23
2022-11-14T07:04:10.095Z,3.80
2022-11-14T07:09:31.482Z,3.57
2022-11-14T07:14:52.765Z,3.73
2022-11-14T07:20:13.820Z,3.60
2022-11-14T07:25:34.663Z,3.80
2022-11-14T07:30:55.723Z,4.03
2022-11-14T07:36:17.622Z,3.60
2022-11-14T07:41:38.545Z,3.90
2022-11-14T07:47:02.368Z,3.80
2022-11-14T07:52:23.158Z,3.90
2022-11-14T07:57:48.830Z,3.57
2022-11-14T08:03:10.704Z,4.77
2022-11-14T08:08:32.863Z,4.07
2022-11-14T08:13:54.324Z,4.10
2022-11-14T08:19:16.866Z,3.40
2022-11-14T08:24:37.854Z,3.10
2022-11-14T08:29:59.329Z,2.90
2022-11-14T08:35:21.004Z,2.30
2022-11-14T08:40:47.468Z,2.57
2022-11-14T08:46:09.400Z,2.43
2022-11-14T08:51:30.836Z,2.20
2022-11-14T08:56:52.428Z,1.80
2022-11-14T09:02:13.937Z,1.90
2022-11-14T09:07:34.782Z,1.70
2022-11-14T09:13:03.545Z,1.60
2022-11-14T09:18:24.256Z,1.80
2022-11-14T09:23:48.039Z,1.70
2022-11-14T09:29:09.037Z,1.30
2022-11-14T09:34:33.189Z,1.53
2022-11-14T09:39:54.449Z,1.60
2022-11-14T09:45:36.809Z,2.10
2022-11-14T09:51:16.858Z,1.30
2022-11-14T09:56:38.050Z,1.70
2022-11-14T10:02:14.303Z,1.30
2022-11-14T10:07:56.794Z,1.70
2022-11-14T10:13:47.152Z,2.20
2022-11-14T10:20:05.370Z,2.07
2022-11-14T10:25:39.608Z,1.63
2022-11-14T10:31:07.406Z,1.80
2022-11-14T10:37:00.436Z,2.07
2022-11-14T10:42:39.349Z,1.77
2022-11-14T10:48:25.463Z,1.90
2022-11-14T10:53:59.242Z,1.70
2022-11-14T10:59:21.338Z,1.97
2022-11-14T11:04:45.028Z,1.77
2022-11-14T11:10:25.792Z,1.73
2022-11-14T11:15:55.274Z,1.87
2022-11-14T11:21:19.121Z,1.53
2022-11-14T11:26:40.267Z,1.87
2022-11-14T11:32:01.684Z,1.50
2022-11-14T11:49:15.948Z,1.30
2022-11-14T11:54:53.582Z,1.27
2022-11-14T12:00:17.352Z,1.10
2022-11-14T12:06:05.138Z,1.10
2022-11-14T12:11:28.005Z,1.40
2022-11-14T12:17:26.531Z,1.20
2022-11-14T12:23:13.232Z,1.27
2022-11-14T12:29:08.186Z,1.40
2022-11-14T12:34:40.074Z,1.30
2022-11-14T12:40:07.719Z,1.20
2022-11-14T12:45:40.925Z,1.37
2022-11-14T12:51:05.557Z,1.00
2022-11-14T12:56:32.639Z,1.60
2022-11-14T13:01:53.756Z,1.37
2022-11-14T13:07:47.460Z,1.60
2022-11-14T13:13:31.578Z,1.30
2022-11-14T13:19:29.669Z,1.20
2022-11-14T13:25:02.308Z,2.80
2022-11-14T13:31:02.261Z,1.50
2022-11-14T13:36:44.574Z,1.30
2022-11-14T13:42:20.363Z,1.73
2022-11-14T13:48:09.094Z,1.50
2022-11-14T13:53:32.429Z,1.70
2022-11-14T13:59:18.497Z,1.40
2022-11-14T14:05:05.466Z,1.87
2022-11-14T14:10:41.554Z,1.70
2022-11-14T14:16:02.627Z,1.60
2022-11-14T14:21:57.317Z,1.70
2022-11-14T14:27:43.313Z,1.80
2022-11-14T14:33:18.155Z,1.70
2022-11-14T14:38:39.993Z,1.67
2022-11-14T14:44:04.112Z,1.70
2022-11-14T14:49:44.099Z,2.10
2022-11-14T14:55:08.563Z,1.70
2022-11-14T15:00:31.327Z,4.47
2022-11-14T15:06:00.332Z,2.10
2022-11-14T15:11:28.526Z,2.53
2022-11-14T15:16:54.619Z,1.60
2022-11-14T15:22:17.950Z,1.70
2022-11-14T15:27:57.584Z,1.80
2022-11-14T15:33:31.711Z,1.70
2022-11-14T15:39:21.658Z,1.70
2022-11-14T15:44:47.005Z,1.90
2022-11-14T15:50:14.545Z,1.90
2022-11-14T15:55:35.892Z,1.80
2022-11-14T16:00:57.436Z,2.00
2022-11-14T16:06:19.070Z,2.40
2022-11-14T16:11:39.744Z,2.17
2022-11-14T16:17:01.433Z,1.90
2022-11-14T16:22:22.211Z,3.33
2022-11-14T16:27:43.414Z,2.37
2022-11-14T16:33:04.742Z,2.17
2022-11-14T16:38:25.552Z,2.60
2022-11-14T16:43:46.649Z,2.57
2022-11-14T16:49:07.384Z,2.37
2022-11-14T16:54:28.498Z,2.17
2022-11-14T16:59:51.436Z,2.10
2022-11-14T17:05:12.669Z,2.60
2022-11-14T17:10:33.622Z,3.07
2022-11-14T17:15:54.421Z,3.23
2022-11-14T17:21:17.004Z,2.23
2022-11-14T17:26:42.652Z,2.70
2022-11-14T17:32:06.111Z,2.00
2022-11-14T17:37:27.359Z,2.40
2022-11-14T17:42:48.169Z,2.73
2022-11-14T17:48:13.355Z,2.60
2022-11-14T17:53:35.116Z,2.27
2022-11-14T17:58:56.423Z,2.30
2022-11-14T18:04:17.524Z,3.00
2022-11-14T18:09:38.264Z,2.40
2022-11-14T18:14:59.370Z,2.67
2022-11-14T18:20:20.421Z,2.50
2022-11-14T18:25:41.682Z,2.90
2022-11-14T18:31:04.652Z,3.63
2022-11-14T18:36:29.235Z,2.80
2022-11-14T18:41:50.095Z,3.13
2022-11-14T18:47:11.270Z,2.97
2022-11-14T18:52:32.226Z,3.27
2022-11-14T18:57:53.431Z,2.77
2022-11-14T19:03:17.322Z,2.90
2022-11-14T19:08:39.160Z,2.80
2022-11-14T19:14:07.055Z,2.20
2022-11-14T19:19:32.182Z,2.53
2022-11-14T19:24:53.140Z,2.50
2022-11-14T19:30:15.918Z,2.97
2022-11-14T19:35:39.536Z,3.00
2022-11-14T19:41:07.125Z,3.20
2022-11-14T19:46:32.967Z,3.40
2022-11-14T19:51:53.926Z,3.53
2022-11-14T19:57:15.155Z,2.97
2022-11-14T20:02:40.440Z,2.60
2022-11-14T20:08:02.597Z,2.70
2022-11-14T20:13:34.397Z,2.50
2022-11-14T20:18:59.014Z,2.33
2022-11-14T20:24:24.562Z,2.20
2022-11-14T20:29:48.755Z,2.20
2022-11-14T20:35:09.696Z,2.20
2022-11-14T20:40:31.389Z,2.40
2022-11-14T20:45:59.588Z,2.27
2022-11-14T20:51:22.804Z,2.47
2022-11-14T20:56:43.836Z,2.43
2022-11-14T21:02:12.755Z,2.40
2022-11-14T21:07:34.385Z,2.10
2022-11-14T21:13:13.829Z,2.50
2022-11-14T21:18:35.934Z,2.50
2022-11-14T21:23:57.748Z,2.50
2022-11-14T21:29:18.685Z,2.23
2022-11-14T21:34:39.939Z,2.33
2022-11-14T21:40:01.025Z,2.00
2022-11-14T21:45:22.375Z,2.30
2022-11-14T21:50:43.408Z,2.60
2022-11-14T21:56:24.468Z,2.10
2022-11-14T22:02:06.399Z,2.30
2022-11-14T22:07:27.670Z,2.00
2022-11-14T22:12:48.635Z,2.70
2022-11-14T22:18:09.723Z,2.40
2022-11-14T22:23:31.253Z,2.40
2022-11-14T22:28:52.380Z,2.00
2022-11-14T22:34:13.644Z,2.60
2022-11-14T22:39:34.786Z,2.30
2022-11-14T22:44:55.876Z,2.63
2022-11-14T22:50:16.967Z,2.27
2022-11-14T22:55:45.814Z,2.07
2022-11-14T23:01:41.700Z,1.90
2022-11-14T23:07:03.510Z,1.80
2022-11-14T23:12:24.370Z,2.03
2022-11-14T23:17:45.304Z,1.90
2022-11-14T23:23:06.185Z,2.17
2022-11-14T23:28:29.146Z,2.00
2022-11-14T23:33:55.447Z,1.80
2022-11-14T23:39:16.415Z,2.10
2022-11-14T23:44:37.472Z,1.97
2022-11-14T23:49:58.494Z,2.00
2022-11-14T23:55:19.648Z,1.80
